Beech Mountain, North Carolina
Current Conditions -  °F | °C
As of 10:55 AM on Thursday 30 Oct 2014 (Local Time) from KTNB Reporting Station
Clear Clear  
Wind Chill: 43°   Ceiling: Unl
Heat Index: 47°   Visibility: 10mi
Dew Point: 32°   Wind: 10mph
Humidity: 55%   Direction: 300°WNW
Pressure: 30.08"   Gusts: 16mph
Location:  36.1797°N, 81.8424°W
Report Text: KTNB 301455Z AUTO 30009G14KT 270V330 10SM CLR 09/00 A3008 RMK AO2 T00860000
Loading
Personal Weather Stations






























Interactive Weather Map New forecast layout! Learn more

10-Day Weather Forecast

Advertisements
Track Severe Weather on mobile